Topsham, ME

11:06 PM EST on February 26, 2015 (GMT -0500)
Ivanhoe Hollow | Change Station
CLOSE
Current Station
Personal Weather Station
Location: Topsham, ME
Elevation: 121 ft
Nearby Weather Stations

Elev 121 ft 43.95 °N, 70.00 °W | Updated 8 minutes ago

Mostly Cloudy
Mostly Cloudy
12.1 °F
Feels Like 12 °F
N
0.0
Wind Variable Wind from WNW
Gusts 2.0 mph

Today
High -- | Low -- °F
--% Chance of Precip.
Yesterday
High -- | Low -- °F
Precip. -- in
6:22 AM 5:24 PM
Waxing Gibbous, 65% visible
Pressure 30.12 in
Visibility 10.0 miles
Clouds Overcast 11000 ft
Windchill 12 °F
Dew Point -2 °F
Humidity 53%
Rainfall 0.00 in
Snow Depth Not available.
UV 0 out of 12
Pollen .30 out of 12
Air Quality Not available.
Flu Activity Not available.
METAR KIWI 270353Z AUTO VRB03KT 10SM OVC110 M10/M21 A3012 RMK AO2 SLP199 T11001211

More Conditions Fewer Conditions

Pressure 30.12 in
Visibility 10.0 miles
Clouds Overcast 11000 ft
Windchill 12 °F
Dew Point -2 °F
Humidity 53%
Rainfall 0.00 in
Snow Depth Not available.
UV 0 out of 12
Pollen .30 out of 12
Air Quality Not available.
Flu Activity Not available.
METAR KIWI 270353Z AUTO VRB03KT 10SM OVC110 M10/M21 A3012 RMK AO2 SLP199 T11001211

More Conditions Fewer Conditions

10-Day Weather Forecast

Almanac

Astronomy

Feb. 26, 2015 Rise Set
Actual Time
Civil Twilight
Nautical Twilight
Astronomical Twilight
Moon
Length of Visible Light
Length of Day
Tomorrow will be .
, % of the Moon is Illuminated

Today's Extremes

State Highs State Lows

Community

WunderPhotos

Upload Photos

1,800,609 photos uploaded!

WunderBlogs® & News

Nearby

Air Quality

  Air Quality AQ Index Pollutant
Not available.

Snow Depth

Station Depth Elevation

Earthquake Activity

City Distance Mag. Time & Date
Minimum magnitude displayed is 2.5.

Coastal Water Temperatures

Place Temperature

Nearby Weather Stations